sensor_id;sensor_type;location;lat;lon;timestamp;P1;durP1;ratioP1;P2;durP2;ratioP2
11588;SDS011;5850;51.360;12.362;2024-03-17T00:02:04;5.50;;;5.00;;
11588;SDS011;5850;51.360;12.362;2024-03-17T00:04:31;7.20;;;4.70;;
11588;SDS011;5850;51.360;12.362;2024-03-17T00:06:58;6.97;;;5.10;;
11588;SDS011;5850;51.360;12.362;2024-03-17T00:09:25;8.33;;;5.80;;
11588;SDS011;5850;51.360;12.362;2024-03-17T00:11:51;5.67;;;4.77;;
11588;SDS011;5850;51.360;12.362;2024-03-17T00:14:19;8.03;;;4.93;;
11588;SDS011;5850;51.360;12.362;2024-03-17T00:16:45;7.13;;;4.43;;
11588;SDS011;5850;51.360;12.362;2024-03-17T00:19:13;8.17;;;5.83;;
11588;SDS011;5850;51.360;12.362;2024-03-17T00:21:42;8.03;;;4.60;;
11588;SDS011;5850;51.360;12.362;2024-03-17T00:24:10;6.17;;;4.60;;
11588;SDS011;5850;51.360;12.362;2024-03-17T00:26:38;7.30;;;5.13;;
11588;SDS011;5850;51.360;12.362;2024-03-17T00:29:06;7.73;;;4.90;;
11588;SDS011;5850;51.360;12.362;2024-03-17T00:31:32;5.97;;;4.53;;
11588;SDS011;5850;51.360;12.362;2024-03-17T00:33:59;9.80;;;5.40;;
11588;SDS011;5850;51.360;12.362;2024-03-17T00:36:26;8.27;;;4.37;;
11588;SDS011;5850;51.360;12.362;2024-03-17T00:38:53;6.03;;;4.40;;
11588;SDS011;5850;51.360;12.362;2024-03-17T00:41:19;5.37;;;4.40;;
11588;SDS011;5850;51.360;12.362;2024-03-17T00:43:47;6.93;;;4.70;;
11588;SDS011;5850;51.360;12.362;2024-03-17T00:46:14;10.00;;;5.90;;
11588;SDS011;5850;51.360;12.362;2024-03-17T00:48:41;6.87;;;5.03;;
11588;SDS011;5850;51.360;12.362;2024-03-17T00:51:07;8.57;;;5.40;;
11588;SDS011;5850;51.360;12.362;2024-03-17T00:53:35;7.67;;;5.37;;
11588;SDS011;5850;51.360;12.362;2024-03-17T00:56:01;6.27;;;4.90;;
11588;SDS011;5850;51.360;12.362;2024-03-17T00:58:28;7.70;;;4.37;;
11588;SDS011;5850;51.360;12.362;2024-03-17T01:00:55;5.50;;;4.27;;
11588;SDS011;5850;51.360;12.362;2024-03-17T01:03:22;6.77;;;4.83;;
11588;SDS011;5850;51.360;12.362;2024-03-17T01:05:48;8.93;;;5.13;;
11588;SDS011;5850;51.360;12.362;2024-03-17T01:08:18;6.50;;;4.83;;
11588;SDS011;5850;51.360;12.362;2024-03-17T01:10:45;7.77;;;5.10;;
11588;SDS011;5850;51.360;12.362;2024-03-17T01:13:14;8.63;;;4.87;;
11588;SDS011;5850;51.360;12.362;2024-03-17T01:15:41;5.30;;;4.80;;
11588;SDS011;5850;51.360;12.362;2024-03-17T01:18:09;8.43;;;5.17;;
11588;SDS011;5850;51.360;12.362;2024-03-17T01:20:36;6.53;;;4.77;;
11588;SDS011;5850;51.360;12.362;2024-03-17T01:23:04;7.67;;;4.50;;
11588;SDS011;5850;51.360;12.362;2024-03-17T01:25:30;7.77;;;4.97;;
11588;SDS011;5850;51.360;12.362;2024-03-17T01:28:01;9.60;;;5.07;;
11588;SDS011;5850;51.360;12.362;2024-03-17T01:30:27;9.03;;;5.30;;
11588;SDS011;5850;51.360;12.362;2024-03-17T01:32:55;5.33;;;4.60;;
11588;SDS011;5850;51.360;12.362;2024-03-17T01:35:21;9.60;;;5.10;;
11588;SDS011;5850;51.360;12.362;2024-03-17T01:37:49;5.50;;;4.77;;
11588;SDS011;5850;51.360;12.362;2024-03-17T01:40:15;6.33;;;4.90;;
11588;SDS011;5850;51.360;12.362;2024-03-17T01:42:42;6.27;;;4.53;;
11588;SDS011;5850;51.360;12.362;2024-03-17T01:45:18;7.20;;;4.73;;
11588;SDS011;5850;51.360;12.362;2024-03-17T01:47:53;7.07;;;5.10;;
11588;SDS011;5850;51.360;12.362;2024-03-17T01:50:23;7.20;;;5.30;;
11588;SDS011;5850;51.360;12.362;2024-03-17T01:52:51;6.13;;;4.30;;
11588;SDS011;5850;51.360;12.362;2024-03-17T01:55:20;5.70;;;4.27;;
11588;SDS011;5850;51.360;12.362;2024-03-17T01:57:49;9.47;;;4.53;;
11588;SDS011;5850;51.360;12.362;2024-03-17T02:00:17;7.13;;;4.40;;
11588;SDS011;5850;51.360;12.362;2024-03-17T02:02:44;4.73;;;4.03;;
11588;SDS011;5850;51.360;12.362;2024-03-17T02:05:11;8.77;;;4.80;;
11588;SDS011;5850;51.360;12.362;2024-03-17T02:07:39;6.00;;;4.53;;
11588;SDS011;5850;51.360;12.362;2024-03-17T02:10:06;6.47;;;4.67;;
11588;SDS011;5850;51.360;12.362;2024-03-17T02:12:34;4.53;;;3.93;;
11588;SDS011;5850;51.360;12.362;2024-03-17T02:15:01;4.93;;;4.07;;
11588;SDS011;5850;51.360;12.362;2024-03-17T02:17:31;7.27;;;4.40;;
11588;SDS011;5850;51.360;12.362;2024-03-17T02:19:57;5.60;;;4.20;;
11588;SDS011;5850;51.360;12.362;2024-03-17T02:22:26;5.33;;;4.63;;
11588;SDS011;5850;51.360;12.362;2024-03-17T02:24:53;5.73;;;4.57;;
11588;SDS011;5850;51.360;12.362;2024-03-17T02:27:20;5.40;;;4.03;;
11588;SDS011;5850;51.360;12.362;2024-03-17T02:29:47;6.67;;;4.27;;
11588;SDS011;5850;51.360;12.362;2024-03-17T02:32:14;9.23;;;4.30;;
11588;SDS011;5850;51.360;12.362;2024-03-17T02:34:40;4.67;;;4.07;;
11588;SDS011;5850;51.360;12.362;2024-03-17T02:37:09;6.00;;;4.40;;
11588;SDS011;5850;51.360;12.362;2024-03-17T02:39:37;5.67;;;3.70;;
11588;SDS011;5850;51.360;12.362;2024-03-17T02:42:04;5.73;;;4.20;;
11588;SDS011;5850;51.360;12.362;2024-03-17T02:44:36;4.23;;;3.80;;
11588;SDS011;5850;51.360;12.362;2024-03-17T02:47:05;5.70;;;3.93;;
11588;SDS011;5850;51.360;12.362;2024-03-17T02:49:34;4.77;;;3.77;;
11588;SDS011;5850;51.360;12.362;2024-03-17T02:52:05;4.87;;;3.73;;
11588;SDS011;5850;51.360;12.362;2024-03-17T02:54:34;5.50;;;4.13;;
11588;SDS011;5850;51.360;12.362;2024-03-17T02:57:03;6.27;;;3.90;;
11588;SDS011;5850;51.360;12.362;2024-03-17T02:59:31;4.60;;;4.13;;
11588;SDS011;5850;51.360;12.362;2024-03-17T03:01:59;7.03;;;4.30;;
11588;SDS011;5850;51.360;12.362;2024-03-17T03:04:27;7.00;;;4.40;;
11588;SDS011;5850;51.360;12.362;2024-03-17T03:06:55;3.80;;;3.40;;
11588;SDS011;5850;51.360;12.362;2024-03-17T03:09:22;4.60;;;4.13;;
11588;SDS011;5850;51.360;12.362;2024-03-17T03:11:56;6.10;;;4.07;;
11588;SDS011;5850;51.360;12.362;2024-03-17T03:14:25;6.97;;;4.20;;
11588;SDS011;5850;51.360;12.362;2024-03-17T03:16:53;5.53;;;4.23;;
11588;SDS011;5850;51.360;12.362;2024-03-17T03:19:20;5.13;;;4.17;;
11588;SDS011;5850;51.360;12.362;2024-03-17T03:21:47;6.90;;;4.30;;
11588;SDS011;5850;51.360;12.362;2024-03-17T03:24:15;4.23;;;3.60;;
11588;SDS011;5850;51.360;12.362;2024-03-17T03:26:42;6.17;;;4.70;;
11588;SDS011;5850;51.360;12.362;2024-03-17T03:29:10;4.87;;;4.33;;
11588;SDS011;5850;51.360;12.362;2024-03-17T03:31:39;7.50;;;4.07;;
11588;SDS011;5850;51.360;12.362;2024-03-17T03:34:07;5.03;;;3.73;;
11588;SDS011;5850;51.360;12.362;2024-03-17T03:36:34;5.37;;;4.43;;
11588;SDS011;5850;51.360;12.362;2024-03-17T03:39:02;4.63;;;3.97;;
11588;SDS011;5850;51.360;12.362;2024-03-17T03:41:31;4.97;;;4.03;;
11588;SDS011;5850;51.360;12.362;2024-03-17T03:43:59;8.00;;;4.27;;
11588;SDS011;5850;51.360;12.362;2024-03-17T03:46:26;4.37;;;3.97;;
11588;SDS011;5850;51.360;12.362;2024-03-17T03:48:53;7.37;;;3.93;;
11588;SDS011;5850;51.360;12.362;2024-03-17T03:51:22;6.43;;;4.40;;
11588;SDS011;5850;51.360;12.362;2024-03-17T03:53:50;4.43;;;4.03;;
11588;SDS011;5850;51.360;12.362;2024-03-17T03:56:17;6.57;;;4.40;;
11588;SDS011;5850;51.360;12.362;2024-03-17T03:58:45;7.23;;;4.13;;
11588;SDS011;5850;51.360;12.362;2024-03-17T04:01:15;6.90;;;3.87;;
11588;SDS011;5850;51.360;12.362;2024-03-17T04:03:47;5.53;;;4.00;;
11588;SDS011;5850;51.360;12.362;2024-03-17T04:06:15;6.93;;;4.53;;
11588;SDS011;5850;51.360;12.362;2024-03-17T04:08:43;7.97;;;4.03;;
11588;SDS011;5850;51.360;12.362;2024-03-17T04:11:10;5.27;;;4.00;;
11588;SDS011;5850;51.360;12.362;2024-03-17T04:13:37;4.97;;;4.30;;
11588;SDS011;5850;51.360;12.362;2024-03-17T04:16:06;4.93;;;4.03;;
11588;SDS011;5850;51.360;12.362;2024-03-17T04:18:35;6.33;;;3.70;;
11588;SDS011;5850;51.360;12.362;2024-03-17T04:21:03;5.03;;;3.73;;
11588;SDS011;5850;51.360;12.362;2024-03-17T04:23:32;6.87;;;4.50;;
11588;SDS011;5850;51.360;12.362;2024-03-17T04:26:00;5.10;;;4.20;;
11588;SDS011;5850;51.360;12.362;2024-03-17T04:28:28;4.67;;;3.97;;
11588;SDS011;5850;51.360;12.362;2024-03-17T04:31:05;5.97;;;4.00;;
11588;SDS011;5850;51.360;12.362;2024-03-17T04:33:33;7.50;;;4.10;;
11588;SDS011;5850;51.360;12.362;2024-03-17T04:36:01;7.30;;;3.90;;
11588;SDS011;5850;51.360;12.362;2024-03-17T04:38:28;6.60;;;4.17;;
11588;SDS011;5850;51.360;12.362;2024-03-17T04:40:56;7.50;;;3.63;;
11588;SDS011;5850;51.360;12.362;2024-03-17T04:43:32;4.10;;;3.70;;
11588;SDS011;5850;51.360;12.362;2024-03-17T04:46:00;7.37;;;4.20;;
11588;SDS011;5850;51.360;12.362;2024-03-17T04:48:30;6.17;;;4.27;;
11588;SDS011;5850;51.360;12.362;2024-03-17T04:50:58;5.40;;;4.00;;
11588;SDS011;5850;51.360;12.362;2024-03-17T04:53:26;6.27;;;4.53;;
11588;SDS011;5850;51.360;12.362;2024-03-17T04:56:01;6.20;;;4.00;;
11588;SDS011;5850;51.360;12.362;2024-03-17T04:58:30;7.27;;;3.90;;
11588;SDS011;5850;51.360;12.362;2024-03-17T05:01:07;6.37;;;4.43;;
11588;SDS011;5850;51.360;12.362;2024-03-17T05:03:35;4.87;;;4.03;;
11588;SDS011;5850;51.360;12.362;2024-03-17T05:06:02;6.00;;;4.00;;
11588;SDS011;5850;51.360;12.362;2024-03-17T05:08:31;7.80;;;4.73;;
11588;SDS011;5850;51.360;12.362;2024-03-17T05:11:00;7.77;;;4.23;;
11588;SDS011;5850;51.360;12.362;2024-03-17T05:13:30;7.00;;;4.27;;
11588;SDS011;5850;51.360;12.362;2024-03-17T05:16:02;4.60;;;3.97;;
11588;SDS011;5850;51.360;12.362;2024-03-17T05:18:29;6.07;;;4.27;;
11588;SDS011;5850;51.360;12.362;2024-03-17T05:21:02;6.43;;;4.43;;
11588;SDS011;5850;51.360;12.362;2024-03-17T05:23:31;5.17;;;3.80;;
11588;SDS011;5850;51.360;12.362;2024-03-17T05:26:02;7.77;;;4.57;;
11588;SDS011;5850;51.360;12.362;2024-03-17T05:28:30;4.60;;;3.70;;
11588;SDS011;5850;51.360;12.362;2024-03-17T05:30:58;6.93;;;4.63;;
11588;SDS011;5850;51.360;12.362;2024-03-17T05:33:25;6.33;;;4.10;;
11588;SDS011;5850;51.360;12.362;2024-03-17T05:35:53;5.03;;;3.83;;
11588;SDS011;5850;51.360;12.362;2024-03-17T05:38:22;5.43;;;3.87;;
11588;SDS011;5850;51.360;12.362;2024-03-17T05:40:54;5.43;;;4.37;;
11588;SDS011;5850;51.360;12.362;2024-03-17T05:43:29;5.77;;;4.50;;
11588;SDS011;5850;51.360;12.362;2024-03-17T05:46:03;5.93;;;3.90;;
11588;SDS011;5850;51.360;12.362;2024-03-17T05:48:39;5.03;;;4.20;;
11588;SDS011;5850;51.360;12.362;2024-03-17T05:51:07;5.50;;;4.40;;
11588;SDS011;5850;51.360;12.362;2024-03-17T05:53:38;6.03;;;4.07;;
11588;SDS011;5850;51.360;12.362;2024-03-17T05:56:06;6.03;;;4.40;;
11588;SDS011;5850;51.360;12.362;2024-03-17T05:58:34;5.23;;;3.83;;
11588;SDS011;5850;51.360;12.362;2024-03-17T06:01:02;6.77;;;4.40;;
11588;SDS011;5850;51.360;12.362;2024-03-17T06:03:32;9.43;;;4.30;;
11588;SDS011;5850;51.360;12.362;2024-03-17T06:06:01;7.70;;;4.50;;
11588;SDS011;5850;51.360;12.362;2024-03-17T06:08:29;4.40;;;3.87;;
11588;SDS011;5850;51.360;12.362;2024-03-17T06:10:57;6.40;;;4.33;;
11588;SDS011;5850;51.360;12.362;2024-03-17T06:13:26;8.67;;;4.33;;
11588;SDS011;5850;51.360;12.362;2024-03-17T06:15:53;7.07;;;4.20;;
11588;SDS011;5850;51.360;12.362;2024-03-17T06:18:25;5.97;;;4.07;;
11588;SDS011;5850;51.360;12.362;2024-03-17T06:20:53;5.57;;;3.83;;
11588;SDS011;5850;51.360;12.362;2024-03-17T06:23:23;7.97;;;4.87;;
11588;SDS011;5850;51.360;12.362;2024-03-17T06:25:52;7.77;;;4.27;;
11588;SDS011;5850;51.360;12.362;2024-03-17T06:28:20;6.10;;;4.37;;
11588;SDS011;5850;51.360;12.362;2024-03-17T06:30:55;6.83;;;4.10;;
11588;SDS011;5850;51.360;12.362;2024-03-17T06:33:25;8.00;;;4.00;;
11588;SDS011;5850;51.360;12.362;2024-03-17T06:35:53;4.83;;;3.90;;
11588;SDS011;5850;51.360;12.362;2024-03-17T06:38:21;5.90;;;4.03;;
11588;SDS011;5850;51.360;12.362;2024-03-17T06:40:48;5.57;;;4.50;;
11588;SDS011;5850;51.360;12.362;2024-03-17T06:43:17;6.80;;;4.00;;
11588;SDS011;5850;51.360;12.362;2024-03-17T06:45:53;5.17;;;3.83;;
11588;SDS011;5850;51.360;12.362;2024-03-17T06:48:24;5.10;;;4.20;;
11588;SDS011;5850;51.360;12.362;2024-03-17T06:53:22;6.13;;;4.20;;
11588;SDS011;5850;51.360;12.362;2024-03-17T06:55:55;7.67;;;4.30;;
11588;SDS011;5850;51.360;12.362;2024-03-17T06:58:26;7.70;;;4.20;;
11588;SDS011;5850;51.360;12.362;2024-03-17T07:00:58;6.97;;;4.30;;
11588;SDS011;5850;51.360;12.362;2024-03-17T07:03:28;6.60;;;3.90;;
11588;SDS011;5850;51.360;12.362;2024-03-17T07:06:00;8.27;;;3.97;;
11588;SDS011;5850;51.360;12.362;2024-03-17T07:08:29;6.60;;;3.90;;
11588;SDS011;5850;51.360;12.362;2024-03-17T07:13:30;7.60;;;3.50;;
11588;SDS011;5850;51.360;12.362;2024-03-17T07:16:00;5.00;;;3.83;;
11588;SDS011;5850;51.360;12.362;2024-03-17T07:18:38;7.80;;;4.10;;
11588;SDS011;5850;51.360;12.362;2024-03-17T07:21:05;5.20;;;3.63;;
11588;SDS011;5850;51.360;12.362;2024-03-17T07:23:34;6.23;;;3.30;;
11588;SDS011;5850;51.360;12.362;2024-03-17T07:26:02;6.53;;;3.70;;
11588;SDS011;5850;51.360;12.362;2024-03-17T07:28:31;6.50;;;3.63;;
11588;SDS011;5850;51.360;12.362;2024-03-17T07:30:58;4.47;;;4.00;;
11588;SDS011;5850;51.360;12.362;2024-03-17T07:33:27;4.33;;;3.10;;
11588;SDS011;5850;51.360;12.362;2024-03-17T07:35:57;7.53;;;3.80;;
11588;SDS011;5850;51.360;12.362;2024-03-17T07:38:27;5.50;;;3.83;;
11588;SDS011;5850;51.360;12.362;2024-03-17T07:43:34;5.57;;;3.43;;
11588;SDS011;5850;51.360;12.362;2024-03-17T07:46:04;5.33;;;3.43;;
11588;SDS011;5850;51.360;12.362;2024-03-17T07:48:37;6.83;;;3.63;;
11588;SDS011;5850;51.360;12.362;2024-03-17T07:51:07;4.57;;;3.70;;
11588;SDS011;5850;51.360;12.362;2024-03-17T07:53:39;6.47;;;3.37;;
11588;SDS011;5850;51.360;12.362;2024-03-17T07:56:11;5.50;;;3.60;;
11588;SDS011;5850;51.360;12.362;2024-03-17T07:58:40;8.73;;;3.43;;
11588;SDS011;5850;51.360;12.362;2024-03-17T08:01:10;8.13;;;3.50;;
11588;SDS011;5850;51.360;12.362;2024-03-17T08:03:39;4.90;;;3.30;;
11588;SDS011;5850;51.360;12.362;2024-03-17T08:06:09;5.73;;;3.20;;
11588;SDS011;5850;51.360;12.362;2024-03-17T08:08:37;8.33;;;3.70;;
11588;SDS011;5850;51.360;12.362;2024-03-17T08:11:04;9.30;;;3.47;;
11588;SDS011;5850;51.360;12.362;2024-03-17T08:13:31;8.90;;;3.70;;
11588;SDS011;5850;51.360;12.362;2024-03-17T08:16:01;7.03;;;3.00;;
11588;SDS011;5850;51.360;12.362;2024-03-17T08:18:31;6.53;;;3.10;;
11588;SDS011;5850;51.360;12.362;2024-03-17T08:20:59;9.10;;;3.90;;
11588;SDS011;5850;51.360;12.362;2024-03-17T08:23:29;9.50;;;3.30;;
11588;SDS011;5850;51.360;12.362;2024-03-17T08:25:57;9.23;;;3.27;;
11588;SDS011;5850;51.360;12.362;2024-03-17T08:28:26;7.80;;;3.27;;
11588;SDS011;5850;51.360;12.362;2024-03-17T08:30:57;5.10;;;2.83;;
11588;SDS011;5850;51.360;12.362;2024-03-17T08:33:27;6.57;;;3.40;;
11588;SDS011;5850;51.360;12.362;2024-03-17T08:36:05;9.63;;;3.23;;
11588;SDS011;5850;51.360;12.362;2024-03-17T08:38:34;7.37;;;3.00;;
11588;SDS011;5850;51.360;12.362;2024-03-17T08:41:06;5.17;;;3.03;;
11588;SDS011;5850;51.360;12.362;2024-03-17T08:43:35;7.30;;;3.27;;
11588;SDS011;5850;51.360;12.362;2024-03-17T08:46:04;7.60;;;3.30;;
11588;SDS011;5850;51.360;12.362;2024-03-17T08:48:34;9.37;;;3.83;;
11588;SDS011;5850;51.360;12.362;2024-03-17T08:51:03;8.20;;;3.80;;
11588;SDS011;5850;51.360;12.362;2024-03-17T08:53:32;6.67;;;3.83;;
11588;SDS011;5850;51.360;12.362;2024-03-17T08:56:00;15.03;;;4.37;;
11588;SDS011;5850;51.360;12.362;2024-03-17T08:58:39;6.73;;;3.27;;
11588;SDS011;5850;51.360;12.362;2024-03-17T09:01:06;8.07;;;3.77;;
11588;SDS011;5850;51.360;12.362;2024-03-17T09:03:34;12.03;;;3.93;;
11588;SDS011;5850;51.360;12.362;2024-03-17T09:06:02;8.43;;;4.30;;
11588;SDS011;5850;51.360;12.362;2024-03-17T09:08:29;9.00;;;3.47;;
11588;SDS011;5850;51.360;12.362;2024-03-17T09:10:58;9.57;;;3.83;;
11588;SDS011;5850;51.360;12.362;2024-03-17T09:13:26;8.90;;;3.57;;
11588;SDS011;5850;51.360;12.362;2024-03-17T09:15:55;6.40;;;3.00;;
11588;SDS011;5850;51.360;12.362;2024-03-17T09:18:30;12.33;;;3.53;;
11588;SDS011;5850;51.360;12.362;2024-03-17T09:21:07;10.30;;;3.60;;
11588;SDS011;5850;51.360;12.362;2024-03-17T09:23:35;11.00;;;3.57;;
11588;SDS011;5850;51.360;12.362;2024-03-17T09:26:07;5.67;;;3.00;;
11588;SDS011;5850;51.360;12.362;2024-03-17T09:28:36;7.07;;;3.23;;
11588;SDS011;5850;51.360;12.362;2024-03-17T09:31:04;15.37;;;3.37;;
11588;SDS011;5850;51.360;12.362;2024-03-17T09:33:33;11.73;;;3.80;;
11588;SDS011;5850;51.360;12.362;2024-03-17T09:36:02;6.10;;;3.17;;
11588;SDS011;5850;51.360;12.362;2024-03-17T09:38:31;4.57;;;2.60;;
11588;SDS011;5850;51.360;12.362;2024-03-17T09:40:59;4.60;;;3.00;;
11588;SDS011;5850;51.360;12.362;2024-03-17T09:43:27;11.77;;;3.40;;
11588;SDS011;5850;51.360;12.362;2024-03-17T09:46:02;9.60;;;2.83;;
11588;SDS011;5850;51.360;12.362;2024-03-17T09:48:30;6.80;;;3.60;;
11588;SDS011;5850;51.360;12.362;2024-03-17T09:50:59;6.50;;;3.13;;
11588;SDS011;5850;51.360;12.362;2024-03-17T09:53:28;8.70;;;3.07;;
11588;SDS011;5850;51.360;12.362;2024-03-17T09:56:01;8.50;;;3.33;;
11588;SDS011;5850;51.360;12.362;2024-03-17T09:58:35;4.43;;;2.90;;
11588;SDS011;5850;51.360;12.362;2024-03-17T10:01:02;8.07;;;3.40;;
11588;SDS011;5850;51.360;12.362;2024-03-17T10:03:50;5.00;;;2.70;;
11588;SDS011;5850;51.360;12.362;2024-03-17T10:06:20;7.87;;;2.67;;
11588;SDS011;5850;51.360;12.362;2024-03-17T10:08:49;5.90;;;3.07;;
11588;SDS011;5850;51.360;12.362;2024-03-17T10:11:27;4.57;;;2.53;;
11588;SDS011;5850;51.360;12.362;2024-03-17T10:14:03;7.80;;;2.87;;
11588;SDS011;5850;51.360;12.362;2024-03-17T10:16:35;7.33;;;2.60;;
11588;SDS011;5850;51.360;12.362;2024-03-17T10:19:11;10.43;;;3.10;;
11588;SDS011;5850;51.360;12.362;2024-03-17T10:21:40;8.17;;;3.93;;
11588;SDS011;5850;51.360;12.362;2024-03-17T10:24:14;5.43;;;2.97;;
11588;SDS011;5850;51.360;12.362;2024-03-17T10:26:56;4.73;;;2.80;;
11588;SDS011;5850;51.360;12.362;2024-03-17T10:32:01;7.83;;;2.87;;
11588;SDS011;5850;51.360;12.362;2024-03-17T10:34:30;6.83;;;3.20;;
11588;SDS011;5850;51.360;12.362;2024-03-17T10:39:36;8.67;;;3.20;;
11588;SDS011;5850;51.360;12.362;2024-03-17T10:42:05;6.93;;;3.40;;
11588;SDS011;5850;51.360;12.362;2024-03-17T10:44:37;5.87;;;2.97;;
11588;SDS011;5850;51.360;12.362;2024-03-17T10:47:06;6.53;;;2.70;;
11588;SDS011;5850;51.360;12.362;2024-03-17T10:49:37;3.40;;;2.60;;
11588;SDS011;5850;51.360;12.362;2024-03-17T10:52:05;8.57;;;3.23;;
11588;SDS011;5850;51.360;12.362;2024-03-17T10:54:47;5.37;;;2.67;;
11588;SDS011;5850;51.360;12.362;2024-03-17T11:00:04;7.37;;;3.43;;
11588;SDS011;5850;51.360;12.362;2024-03-17T11:02:33;5.87;;;3.23;;
11588;SDS011;5850;51.360;12.362;2024-03-17T11:05:03;4.57;;;2.30;;
11588;SDS011;5850;51.360;12.362;2024-03-17T11:07:42;3.13;;;2.73;;
11588;SDS011;5850;51.360;12.362;2024-03-17T11:12:58;6.47;;;3.20;;
11588;SDS011;5850;51.360;12.362;2024-03-17T11:20:35;4.63;;;2.80;;
11588;SDS011;5850;51.360;12.362;2024-03-17T11:23:04;7.63;;;3.30;;
11588;SDS011;5850;51.360;12.362;2024-03-17T11:34:00;5.23;;;3.30;;
11588;SDS011;5850;51.360;12.362;2024-03-17T11:38:56;4.87;;;3.80;;
11588;SDS011;5850;51.360;12.362;2024-03-17T11:41:42;10.03;;;3.90;;
11588;SDS011;5850;51.360;12.362;2024-03-17T11:44:12;6.00;;;3.77;;
11588;SDS011;5850;51.360;12.362;2024-03-17T11:54:44;9.70;;;4.43;;
11588;SDS011;5850;51.360;12.362;2024-03-17T11:57:13;8.33;;;4.80;;
11588;SDS011;5850;51.360;12.362;2024-03-17T11:59:45;10.20;;;4.80;;
11588;SDS011;5850;51.360;12.362;2024-03-17T12:02:17;6.43;;;4.00;;
11588;SDS011;5850;51.360;12.362;2024-03-17T12:05:00;8.20;;;3.77;;
11588;SDS011;5850;51.360;12.362;2024-03-17T12:07:28;5.27;;;3.53;;
11588;SDS011;5850;51.360;12.362;2024-03-17T12:09:56;6.20;;;3.43;;
11588;SDS011;5850;51.360;12.362;2024-03-17T12:12:24;7.80;;;4.13;;
11588;SDS011;5850;51.360;12.362;2024-03-17T12:15:00;6.30;;;4.10;;
11588;SDS011;5850;51.360;12.362;2024-03-17T12:17:28;5.80;;;3.73;;
11588;SDS011;5850;51.360;12.362;2024-03-17T12:19:55;9.40;;;4.37;;
11588;SDS011;5850;51.360;12.362;2024-03-17T12:22:22;6.37;;;4.30;;
11588;SDS011;5850;51.360;12.362;2024-03-17T12:24:55;6.20;;;4.00;;
11588;SDS011;5850;51.360;12.362;2024-03-17T12:27:25;7.67;;;3.87;;
11588;SDS011;5850;51.360;12.362;2024-03-17T12:29:52;8.20;;;3.80;;
11588;SDS011;5850;51.360;12.362;2024-03-17T12:32:24;9.47;;;4.10;;
11588;SDS011;5850;51.360;12.362;2024-03-17T12:34:51;8.30;;;4.70;;
11588;SDS011;5850;51.360;12.362;2024-03-17T12:37:21;7.23;;;5.40;;
11588;SDS011;5850;51.360;12.362;2024-03-17T12:39:50;8.93;;;5.07;;
11588;SDS011;5850;51.360;12.362;2024-03-17T12:42:25;6.03;;;4.33;;
11588;SDS011;5850;51.360;12.362;2024-03-17T12:44:53;9.43;;;4.33;;
11588;SDS011;5850;51.360;12.362;2024-03-17T12:47:21;7.43;;;4.73;;
11588;SDS011;5850;51.360;12.362;2024-03-17T12:49:58;7.67;;;3.77;;
11588;SDS011;5850;51.360;12.362;2024-03-17T12:52:30;7.03;;;3.90;;
11588;SDS011;5850;51.360;12.362;2024-03-17T12:55:07;6.87;;;3.87;;
11588;SDS011;5850;51.360;12.362;2024-03-17T13:00:47;6.90;;;3.63;;
11588;SDS011;5850;51.360;12.362;2024-03-17T13:03:30;6.37;;;3.83;;
11588;SDS011;5850;51.360;12.362;2024-03-17T13:06:03;6.43;;;3.47;;
11588;SDS011;5850;51.360;12.362;2024-03-17T13:08:31;6.13;;;3.03;;
11588;SDS011;5850;51.360;12.362;2024-03-17T13:10:59;4.57;;;3.53;;
11588;SDS011;5850;51.360;12.362;2024-03-17T13:13:29;5.40;;;3.30;;
11588;SDS011;5850;51.360;12.362;2024-03-17T13:15:57;6.63;;;3.50;;
11588;SDS011;5850;51.360;12.362;2024-03-17T13:18:24;5.67;;;3.17;;
11588;SDS011;5850;51.360;12.362;2024-03-17T13:20:52;7.70;;;3.67;;
11588;SDS011;5850;51.360;12.362;2024-03-17T13:23:20;7.00;;;4.00;;
11588;SDS011;5850;51.360;12.362;2024-03-17T13:25:49;4.87;;;3.30;;
11588;SDS011;5850;51.360;12.362;2024-03-17T13:28:16;4.97;;;2.90;;
11588;SDS011;5850;51.360;12.362;2024-03-17T13:30:44;6.30;;;3.30;;
11588;SDS011;5850;51.360;12.362;2024-03-17T13:33:13;5.20;;;2.93;;
11588;SDS011;5850;51.360;12.362;2024-03-17T13:35:40;5.97;;;3.07;;
11588;SDS011;5850;51.360;12.362;2024-03-17T13:38:09;5.53;;;3.63;;
11588;SDS011;5850;51.360;12.362;2024-03-17T13:40:37;9.00;;;3.47;;
11588;SDS011;5850;51.360;12.362;2024-03-17T13:43:07;5.13;;;3.07;;
11588;SDS011;5850;51.360;12.362;2024-03-17T13:45:39;5.77;;;3.60;;
11588;SDS011;5850;51.360;12.362;2024-03-17T13:48:08;6.00;;;2.87;;
11588;SDS011;5850;51.360;12.362;2024-03-17T13:50:39;4.23;;;3.03;;
11588;SDS011;5850;51.360;12.362;2024-03-17T13:53:09;4.93;;;3.23;;
11588;SDS011;5850;51.360;12.362;2024-03-17T13:55:37;4.83;;;3.00;;
11588;SDS011;5850;51.360;12.362;2024-03-17T13:58:03;4.40;;;3.00;;
11588;SDS011;5850;51.360;12.362;2024-03-17T14:00:30;5.83;;;2.83;;
11588;SDS011;5850;51.360;12.362;2024-03-17T14:03:02;4.97;;;2.87;;
11588;SDS011;5850;51.360;12.362;2024-03-17T14:05:29;6.47;;;2.97;;
11588;SDS011;5850;51.360;12.362;2024-03-17T14:07:59;4.53;;;3.10;;
11588;SDS011;5850;51.360;12.362;2024-03-17T14:10:27;6.43;;;2.93;;
11588;SDS011;5850;51.360;12.362;2024-03-17T14:12:54;4.83;;;3.20;;
11588;SDS011;5850;51.360;12.362;2024-03-17T14:15:22;7.10;;;2.77;;
11588;SDS011;5850;51.360;12.362;2024-03-17T14:17:59;3.43;;;2.23;;
11588;SDS011;5850;51.360;12.362;2024-03-17T14:20:26;4.77;;;3.20;;
11588;SDS011;5850;51.360;12.362;2024-03-17T14:22:54;9.23;;;3.57;;
11588;SDS011;5850;51.360;12.362;2024-03-17T14:25:22;6.00;;;3.60;;
11588;SDS011;5850;51.360;12.362;2024-03-17T14:27:50;3.80;;;2.83;;
11588;SDS011;5850;51.360;12.362;2024-03-17T14:30:18;6.50;;;3.57;;
11588;SDS011;5850;51.360;12.362;2024-03-17T14:32:46;8.77;;;3.63;;
11588;SDS011;5850;51.360;12.362;2024-03-17T14:35:17;6.60;;;4.27;;
11588;SDS011;5850;51.360;12.362;2024-03-17T14:37:45;9.50;;;3.43;;
11588;SDS011;5850;51.360;12.362;2024-03-17T14:40:17;7.87;;;3.00;;
11588;SDS011;5850;51.360;12.362;2024-03-17T14:42:48;8.23;;;3.37;;
11588;SDS011;5850;51.360;12.362;2024-03-17T14:45:18;4.37;;;2.90;;
11588;SDS011;5850;51.360;12.362;2024-03-17T14:47:46;6.17;;;3.40;;
11588;SDS011;5850;51.360;12.362;2024-03-17T14:50:14;10.57;;;4.03;;
11588;SDS011;5850;51.360;12.362;2024-03-17T14:52:42;6.60;;;3.57;;
11588;SDS011;5850;51.360;12.362;2024-03-17T14:55:09;6.97;;;3.90;;
11588;SDS011;5850;51.360;12.362;2024-03-17T14:57:40;9.17;;;3.93;;
11588;SDS011;5850;51.360;12.362;2024-03-17T15:00:11;7.70;;;3.73;;
11588;SDS011;5850;51.360;12.362;2024-03-17T15:02:45;5.93;;;3.40;;
11588;SDS011;5850;51.360;12.362;2024-03-17T15:05:14;3.67;;;3.23;;
11588;SDS011;5850;51.360;12.362;2024-03-17T15:07:44;7.50;;;4.13;;
11588;SDS011;5850;51.360;12.362;2024-03-17T15:10:11;8.03;;;3.87;;
11588;SDS011;5850;51.360;12.362;2024-03-17T15:12:38;5.40;;;3.80;;
11588;SDS011;5850;51.360;12.362;2024-03-17T15:15:06;7.37;;;4.17;;
11588;SDS011;5850;51.360;12.362;2024-03-17T15:17:35;8.67;;;3.80;;
11588;SDS011;5850;51.360;12.362;2024-03-17T15:20:03;6.50;;;5.00;;
11588;SDS011;5850;51.360;12.362;2024-03-17T15:22:42;5.67;;;3.30;;
11588;SDS011;5850;51.360;12.362;2024-03-17T15:25:11;8.47;;;3.57;;
11588;SDS011;5850;51.360;12.362;2024-03-17T15:27:42;5.13;;;3.70;;
11588;SDS011;5850;51.360;12.362;2024-03-17T15:30:13;8.13;;;4.20;;
11588;SDS011;5850;51.360;12.362;2024-03-17T15:32:47;6.97;;;4.33;;
11588;SDS011;5850;51.360;12.362;2024-03-17T15:35:14;8.60;;;3.70;;
11588;SDS011;5850;51.360;12.362;2024-03-17T15:37:42;5.53;;;3.50;;
11588;SDS011;5850;51.360;12.362;2024-03-17T15:40:09;7.57;;;3.30;;
11588;SDS011;5850;51.360;12.362;2024-03-17T15:42:45;7.63;;;3.17;;
11588;SDS011;5850;51.360;12.362;2024-03-17T15:45:14;7.50;;;3.87;;
11588;SDS011;5850;51.360;12.362;2024-03-17T15:48:02;8.87;;;3.53;;